createdAt,value
2023-03-06T00:02:05.068Z,7.78
2023-03-06T00:04:31.739Z,6.43
2023-03-06T00:06:58.508Z,7.38
2023-03-06T00:09:25.409Z,6.80
2023-03-06T00:11:54.506Z,11.38
2023-03-06T00:14:21.293Z,10.88
2023-03-06T00:16:48.394Z,8.35
2023-03-06T00:19:16.380Z,7.30
2023-03-06T00:24:09.989Z,6.75
2023-03-06T00:26:36.788Z,7.15
2023-03-06T00:29:03.692Z,7.78
2023-03-06T00:31:30.584Z,7.00
2023-03-06T00:33:57.671Z,6.18
2023-03-06T00:36:24.413Z,7.88
2023-03-06T00:38:51.237Z,7.00
2023-03-06T00:41:20.539Z,7.45
2023-03-06T00:43:47.307Z,7.55
2023-03-06T00:46:14.615Z,8.43
2023-03-06T00:48:41.436Z,7.10
2023-03-06T00:51:10.940Z,7.25
2023-03-06T00:53:38.908Z,5.97
2023-03-06T00:56:06.100Z,8.40
2023-03-06T00:58:33.009Z,8.38
2023-03-06T01:00:59.783Z,7.47
2023-03-06T01:03:27.908Z,7.57
2023-03-06T01:05:54.722Z,8.32
2023-03-06T01:08:21.689Z,7.43
2023-03-06T01:10:48.668Z,7.55
2023-03-06T01:13:16.393Z,7.95
2023-03-06T01:15:44.066Z,6.93
2023-03-06T01:18:10.904Z,6.82
2023-03-06T01:20:37.999Z,8.40
2023-03-06T01:23:04.780Z,6.68
2023-03-06T01:25:31.705Z,8.57
2023-03-06T01:28:00.235Z,8.35
2023-03-06T01:30:27.200Z,7.22
2023-03-06T01:32:54.433Z,8.77
2023-03-06T01:35:24.779Z,7.22
2023-03-06T01:37:51.686Z,6.50
2023-03-06T01:40:18.474Z,6.38
2023-03-06T01:42:46.790Z,7.75
2023-03-06T01:45:14.218Z,7.18
2023-03-06T01:47:42.157Z,6.50
2023-03-06T01:50:12.887Z,8.73
2023-03-06T01:52:49.200Z,6.82
2023-03-06T01:55:19.588Z,7.30
2023-03-06T01:57:55.166Z,7.55
2023-03-06T02:00:25.584Z,10.30
2023-03-06T02:03:01.324Z,9.30
2023-03-06T02:05:27.858Z,8.35
2023-03-06T02:07:55.186Z,6.85
2023-03-06T02:10:22.102Z,7.75
2023-03-06T02:12:51.127Z,7.90
2023-03-06T02:15:21.058Z,7.05
2023-03-06T02:17:48.516Z,6.65
2023-03-06T02:20:40.122Z,8.55
2023-03-06T02:23:18.398Z,6.35
2023-03-06T02:25:48.096Z,6.75
2023-03-06T02:28:18.431Z,8.05
2023-03-06T02:30:47.477Z,7.70
2023-03-06T02:33:16.784Z,9.38
2023-03-06T02:35:49.712Z,7.53
2023-03-06T02:38:18.928Z,9.48
2023-03-06T02:40:49.853Z,8.20
2023-03-06T02:43:21.145Z,10.32
2023-03-06T02:45:50.293Z,9.15
2023-03-06T02:48:18.334Z,8.82
2023-03-06T02:50:46.807Z,9.15
2023-03-06T02:53:15.396Z,9.48
2023-03-06T02:55:42.953Z,8.60
2023-03-06T02:58:09.698Z,8.27
2023-03-06T03:00:36.935Z,7.82
2023-03-06T03:03:07.073Z,8.32
2023-03-06T03:05:33.676Z,7.60
2023-03-06T03:08:08.115Z,8.88
2023-03-06T03:10:35.284Z,8.20
2023-03-06T03:13:02.137Z,8.25
2023-03-06T03:15:28.909Z,8.73
2023-03-06T03:17:55.488Z,9.48
2023-03-06T03:20:22.575Z,9.10
2023-03-06T03:22:55.189Z,9.13
2023-03-06T03:25:24.261Z,9.30
2023-03-06T03:27:51.758Z,8.88
2023-03-06T03:30:19.797Z,8.57
2023-03-06T03:32:46.302Z,9.60
2023-03-06T03:35:13.321Z,9.05
2023-03-06T03:37:41.402Z,9.20
2023-03-06T03:40:09.365Z,8.13
2023-03-06T03:42:36.681Z,11.30
2023-03-06T03:45:05.147Z,9.00
2023-03-06T03:47:31.923Z,9.93
2023-03-06T03:52:26.464Z,7.25
2023-03-06T03:54:52.974Z,8.75
2023-03-06T03:57:19.619Z,8.23
2023-03-06T03:59:50.760Z,8.75
2023-03-06T04:02:23.362Z,8.80
2023-03-06T04:05:04.737Z,9.60
2023-03-06T04:07:31.550Z,8.45
2023-03-06T04:09:58.317Z,9.00
2023-03-06T04:12:26.732Z,8.98
2023-03-06T04:14:53.323Z,10.18
2023-03-06T04:17:19.929Z,11.10
2023-03-06T04:19:47.697Z,10.07
2023-03-06T04:22:14.383Z,8.68
2023-03-06T04:24:40.973Z,8.25
2023-03-06T04:27:08.534Z,10.40
2023-03-06T04:29:35.107Z,8.93
2023-03-06T04:32:02.685Z,10.77
2023-03-06T04:34:29.274Z,11.60
2023-03-06T04:36:56.844Z,10.30
2023-03-06T04:39:23.620Z,10.68
2023-03-06T04:41:50.430Z,9.50
2023-03-06T04:44:17.101Z,11.07
2023-03-06T04:46:43.598Z,8.35
2023-03-06T04:49:10.152Z,9.95
2023-03-06T04:51:36.868Z,9.65
2023-03-06T04:54:04.547Z,11.68
2023-03-06T04:56:31.043Z,9.43
2023-03-06T04:58:57.630Z,12.18
2023-03-06T05:01:24.705Z,9.73
2023-03-06T05:03:51.217Z,10.52
2023-03-06T05:06:17.764Z,9.05
2023-03-06T05:08:44.439Z,10.13
2023-03-06T05:11:11.248Z,8.75
2023-03-06T05:13:37.821Z,11.15
2023-03-06T05:16:05.671Z,10.27
2023-03-06T05:18:33.056Z,8.60
2023-03-06T05:20:59.911Z,8.88
2023-03-06T05:23:28.251Z,9.55
2023-03-06T05:25:54.932Z,9.73
2023-03-06T05:28:21.576Z,9.57
2023-03-06T05:30:48.417Z,8.98
2023-03-06T05:33:14.998Z,9.82
2023-03-06T05:35:46.059Z,8.82
2023-03-06T05:38:12.664Z,9.50
2023-03-06T05:40:43.236Z,9.73
2023-03-06T05:43:10.417Z,10.38
2023-03-06T05:45:37.419Z,11.60
2023-03-06T05:48:04.308Z,8.50
2023-03-06T05:50:30.906Z,11.52
2023-03-06T05:52:57.424Z,10.88
2023-03-06T05:55:24.173Z,8.82
2023-03-06T05:57:51.552Z,11.05
2023-03-06T06:00:19.090Z,9.90
2023-03-06T06:02:46.672Z,10.15
2023-03-06T06:05:13.702Z,9.30
2023-03-06T06:07:41.053Z,9.95
2023-03-06T06:10:08.958Z,12.27
2023-03-06T06:12:35.881Z,9.48
2023-03-06T06:15:02.753Z,8.80
2023-03-06T06:17:32.293Z,10.02
2023-03-06T06:19:59.020Z,10.65
2023-03-06T06:22:25.627Z,9.45
2023-03-06T06:24:52.393Z,9.35
2023-03-06T06:27:19.019Z,8.70
2023-03-06T06:29:45.515Z,9.30
2023-03-06T06:32:12.125Z,9.10
2023-03-06T06:34:38.737Z,8.60
2023-03-06T06:37:05.487Z,8.13
2023-03-06T06:39:32.217Z,8.32
2023-03-06T06:42:16.078Z,8.93
2023-03-06T06:44:45.324Z,8.23
2023-03-06T06:47:23.040Z,7.72
2023-03-06T06:49:54.685Z,9.73
2023-03-06T06:52:21.815Z,10.57
2023-03-06T06:54:48.381Z,8.82
2023-03-06T06:57:15.409Z,10.15
2023-03-06T06:59:42.076Z,8.38
2023-03-06T07:02:11.919Z,8.40
2023-03-06T07:04:44.318Z,8.20
2023-03-06T07:07:16.091Z,10.43
2023-03-06T07:09:42.708Z,12.63
2023-03-06T07:12:09.398Z,9.68
2023-03-06T07:14:36.580Z,8.88
2023-03-06T07:17:03.174Z,11.17
2023-03-06T07:19:29.799Z,11.02
2023-03-06T07:21:56.311Z,9.50
2023-03-06T07:24:22.815Z,7.63
2023-03-06T07:26:49.510Z,7.88
2023-03-06T07:29:16.165Z,9.13
2023-03-06T07:31:42.795Z,8.85
2023-03-06T07:34:13.067Z,7.70
2023-03-06T07:36:39.700Z,7.70
2023-03-06T07:39:09.806Z,7.75
2023-03-06T07:41:36.469Z,8.80
2023-03-06T07:44:03.114Z,8.63
2023-03-06T07:46:32.136Z,9.80
2023-03-06T07:48:58.647Z,8.35
2023-03-06T07:51:25.260Z,7.18
2023-03-06T07:53:51.902Z,7.97
2023-03-06T07:56:18.488Z,8.38
2023-03-06T07:58:46.347Z,8.85
2023-03-06T08:01:18.871Z,7.22
2023-03-06T08:03:45.974Z,7.72
2023-03-06T08:06:15.018Z,8.25
2023-03-06T08:08:44.537Z,9.10
2023-03-06T08:11:12.854Z,8.73
2023-03-06T08:16:07.183Z,8.93
2023-03-06T08:18:34.238Z,8.63
2023-03-06T08:21:12.013Z,10.13
2023-03-06T08:23:39.641Z,9.23
2023-03-06T08:26:11.424Z,9.45
2023-03-06T08:28:37.957Z,10.23
2023-03-06T08:31:10.336Z,11.07
2023-03-06T08:33:37.361Z,9.25
2023-03-06T08:36:04.286Z,8.98
2023-03-06T08:38:30.953Z,8.40
2023-03-06T08:40:57.717Z,8.48
2023-03-06T08:43:24.257Z,8.00
2023-03-06T08:45:57.783Z,9.50
2023-03-06T08:48:25.286Z,9.57
2023-03-06T08:50:52.514Z,6.60
2023-03-06T08:53:19.262Z,8.77
2023-03-06T08:55:46.056Z,8.48
2023-03-06T08:58:12.871Z,8.57
2023-03-06T09:00:39.554Z,9.40
2023-03-06T09:03:06.211Z,8.05
2023-03-06T09:05:33.143Z,8.02
2023-03-06T09:07:59.732Z,7.78
2023-03-06T09:10:28.893Z,8.35
2023-03-06T09:12:55.541Z,8.65
2023-03-06T09:15:23.293Z,7.90
2023-03-06T09:17:50.370Z,7.85
2023-03-06T09:20:17.540Z,8.48
2023-03-06T09:22:44.185Z,8.52
2023-03-06T09:25:11.270Z,9.50
2023-03-06T09:27:37.789Z,7.00
2023-03-06T09:30:05.070Z,7.35
2023-03-06T09:32:31.630Z,7.45
2023-03-06T09:34:58.597Z,7.60
2023-03-06T09:37:25.225Z,8.35
2023-03-06T09:39:51.713Z,9.35
2023-03-06T09:42:24.947Z,8.38
2023-03-06T09:44:58.686Z,8.77
2023-03-06T09:47:47.778Z,8.93
2023-03-06T09:50:38.314Z,8.90
2023-03-06T09:53:31.089Z,8.07
2023-03-06T09:56:15.709Z,9.25
2023-03-06T09:58:48.787Z,8.88
2023-03-06T10:01:34.281Z,9.68
2023-03-06T10:04:09.169Z,10.63
2023-03-06T10:06:53.086Z,8.82
2023-03-06T10:09:52.669Z,9.82
2023-03-06T10:12:29.131Z,8.02
2023-03-06T10:15:22.371Z,8.45
2023-03-06T10:17:49.011Z,8.63
2023-03-06T10:20:17.282Z,9.90
2023-03-06T10:23:01.063Z,8.02
2023-03-06T10:25:44.483Z,9.38
2023-03-06T10:28:17.418Z,8.55
2023-03-06T10:30:55.902Z,10.02
2023-03-06T10:33:30.479Z,8.52
2023-03-06T10:35:57.318Z,8.15
2023-03-06T10:38:30.956Z,8.82
2023-03-06T10:41:12.714Z,8.52
2023-03-06T10:44:02.138Z,8.25
2023-03-06T10:46:39.683Z,8.02
2023-03-06T10:49:24.150Z,7.88
2023-03-06T10:52:06.248Z,8.55
2023-03-06T10:54:38.953Z,7.63
2023-03-06T10:57:17.372Z,7.03
2023-03-06T11:00:00.931Z,7.88
2023-03-06T11:02:33.690Z,7.65
2023-03-06T11:05:02.128Z,7.88
2023-03-06T11:13:22.147Z,7.55
2023-03-06T11:16:30.122Z,9.00
2023-03-06T11:19:05.140Z,8.40
2023-03-06T11:21:34.594Z,7.88
2023-03-06T11:24:11.901Z,7.65
2023-03-06T11:26:46.719Z,6.78
2023-03-06T11:29:38.965Z,7.03
2023-03-06T11:32:23.785Z,7.65
2023-03-06T11:34:59.145Z,7.80
2023-03-06T11:37:37.670Z,6.85
2023-03-06T11:40:15.281Z,7.82
2023-03-06T11:43:04.423Z,7.15
2023-03-06T11:45:44.916Z,6.20
2023-03-06T11:48:14.041Z,7.18
2023-03-06T11:50:46.764Z,8.43
2023-03-06T11:53:18.556Z,8.05
2023-03-06T11:55:59.741Z,8.02
2023-03-06T11:59:10.803Z,8.63
2023-03-06T12:02:01.660Z,9.82
2023-03-06T12:04:41.359Z,9.38
2023-03-06T12:07:20.833Z,8.10
2023-03-06T12:09:57.511Z,7.95
2023-03-06T12:12:59.988Z,9.23
2023-03-06T12:16:03.714Z,7.82
2023-03-06T12:18:35.061Z,9.27
2023-03-06T12:21:15.425Z,7.32
2023-03-06T12:24:01.602Z,8.82
2023-03-06T12:26:49.923Z,9.00
2023-03-06T12:29:32.632Z,7.35
2023-03-06T12:32:28.443Z,9.13
2023-03-06T12:35:20.518Z,8.23
2023-03-06T12:38:05.585Z,9.05
2023-03-06T12:40:55.899Z,9.32
2023-03-06T12:43:34.103Z,10.15
2023-03-06T12:46:24.731Z,8.90
2023-03-06T12:49:31.914Z,10.48
2023-03-06T12:51:59.989Z,9.23
2023-03-06T12:54:30.626Z,9.52
2023-03-06T12:56:59.879Z,8.90
2023-03-06T12:59:35.405Z,9.57
2023-03-06T13:02:22.585Z,8.60
2023-03-06T13:05:02.761Z,9.00
2023-03-06T13:07:37.771Z,9.13
2023-03-06T13:10:28.077Z,8.70
2023-03-06T13:12:58.203Z,9.02
2023-03-06T13:15:44.798Z,8.85
2023-03-06T13:18:23.316Z,9.27
2023-03-06T13:20:55.156Z,8.48
2023-03-06T13:23:30.608Z,7.78
2023-03-06T13:26:18.719Z,8.90
2023-03-06T13:28:49.439Z,8.50
2023-03-06T13:31:27.926Z,9.45
2023-03-06T13:34:04.147Z,9.02
2023-03-06T13:36:38.318Z,8.40
2023-03-06T13:39:10.523Z,8.73
2023-03-06T13:41:54.662Z,10.40
2023-03-06T13:44:24.320Z,8.18
2023-03-06T13:47:05.027Z,10.55
2023-03-06T13:49:33.563Z,8.68
2023-03-06T13:52:18.163Z,9.02
2023-03-06T13:55:11.899Z,8.73
2023-03-06T13:57:44.965Z,9.50
2023-03-06T14:00:42.074Z,8.15
2023-03-06T14:03:31.702Z,8.88
2023-03-06T14:05:58.441Z,8.48
2023-03-06T14:08:29.449Z,8.27
2023-03-06T14:11:06.665Z,7.93
2023-03-06T14:13:45.464Z,8.93
2023-03-06T14:16:20.839Z,7.85
2023-03-06T14:18:50.450Z,9.32
2023-03-06T14:21:28.154Z,8.75
2023-03-06T14:24:03.838Z,8.70
2023-03-06T14:26:40.708Z,7.75
2023-03-06T14:29:20.391Z,9.60
2023-03-06T14:31:53.300Z,8.20
2023-03-06T14:34:25.814Z,7.70
2023-03-06T14:36:59.961Z,6.63
2023-03-06T14:39:40.307Z,8.13
2023-03-06T14:42:19.920Z,8.10
2023-03-06T14:45:19.980Z,8.30
2023-03-06T14:47:51.745Z,8.40
2023-03-06T14:50:25.832Z,7.97
2023-03-06T14:52:56.486Z,8.80
2023-03-06T14:55:28.148Z,7.70
2023-03-06T14:58:00.492Z,7.18
2023-03-06T15:00:34.753Z,7.95
2023-03-06T15:03:04.339Z,8.18
2023-03-06T15:05:31.725Z,7.68
2023-03-06T15:08:03.162Z,7.25
2023-03-06T15:10:32.851Z,6.85
2023-03-06T15:13:20.411Z,7.45
2023-03-06T15:16:08.839Z,8.32
2023-03-06T15:18:42.757Z,7.70
2023-03-06T15:21:20.648Z,10.40
2023-03-06T15:23:49.831Z,11.93
2023-03-06T15:26:19.336Z,10.93
2023-03-06T15:29:00.009Z,12.52
2023-03-06T15:31:40.345Z,7.95
2023-03-06T15:34:06.998Z,7.78
2023-03-06T15:36:47.697Z,7.97
2023-03-06T15:39:36.545Z,6.80
2023-03-06T15:42:24.260Z,8.52
2023-03-06T15:44:56.337Z,6.78
2023-03-06T15:47:23.817Z,6.32
2023-03-06T15:49:50.477Z,6.45
2023-03-06T15:52:16.942Z,8.07
2023-03-06T15:54:46.075Z,7.50
2023-03-06T15:57:26.023Z,7.43
2023-03-06T15:59:53.376Z,7.72
2023-03-06T16:02:22.518Z,9.53
2023-03-06T16:04:49.394Z,8.23
2023-03-06T16:07:16.554Z,7.32
2023-03-06T16:09:43.851Z,8.70
2023-03-06T16:12:21.208Z,5.83
2023-03-06T16:14:48.833Z,8.05
2023-03-06T16:17:16.048Z,7.60
2023-03-06T16:19:42.597Z,7.45
2023-03-06T16:22:09.132Z,6.43
2023-03-06T16:24:35.600Z,7.95
2023-03-06T16:27:02.707Z,7.95
2023-03-06T16:29:29.753Z,5.28
2023-03-06T16:31:57.491Z,6.57
2023-03-06T16:34:24.679Z,6.90
2023-03-06T16:36:51.309Z,6.65
2023-03-06T16:39:21.732Z,7.28
2023-03-06T16:41:48.400Z,6.75
2023-03-06T16:44:15.081Z,5.97
2023-03-06T16:46:43.164Z,7.07
2023-03-06T16:51:47.086Z,6.45
2023-03-06T16:54:13.869Z,7.47
2023-03-06T16:56:41.052Z,6.47
2023-03-06T16:59:07.784Z,6.38
2023-03-06T17:01:34.512Z,6.25
2023-03-06T17:04:01.380Z,7.25
2023-03-06T17:06:28.445Z,6.55
2023-03-06T17:08:55.005Z,7.32
2023-03-06T17:11:21.597Z,6.57
2023-03-06T17:13:48.245Z,6.15
2023-03-06T17:16:15.394Z,6.93
2023-03-06T17:18:45.712Z,7.13
2023-03-06T17:21:13.662Z,6.43
2023-03-06T17:23:40.207Z,7.75
2023-03-06T17:26:15.259Z,6.68
2023-03-06T17:28:42.559Z,6.47
2023-03-06T17:31:20.904Z,6.57
2023-03-06T17:33:48.442Z,6.93
2023-03-06T17:36:16.092Z,6.35
2023-03-06T17:38:43.054Z,7.35
2023-03-06T17:41:10.749Z,7.82
2023-03-06T17:43:37.990Z,7.28
2023-03-06T17:46:06.693Z,6.53
2023-03-06T17:48:34.030Z,6.18
2023-03-06T17:51:03.021Z,6.13
2023-03-06T17:53:29.606Z,6.85
2023-03-06T17:55:56.416Z,7.00
2023-03-06T17:58:23.049Z,6.20
2023-03-06T18:00:49.666Z,6.63
2023-03-06T18:03:16.307Z,7.47
2023-03-06T18:05:43.348Z,7.55
2023-03-06T18:08:09.889Z,7.47
2023-03-06T18:10:40.304Z,7.50
2023-03-06T18:13:07.661Z,6.72
2023-03-06T18:15:37.658Z,5.87
2023-03-06T18:18:04.459Z,7.22
2023-03-06T18:20:31.045Z,8.13
2023-03-06T18:22:57.610Z,7.95
2023-03-06T18:25:24.129Z,8.85
2023-03-06T18:27:50.894Z,8.40
2023-03-06T18:30:17.698Z,9.20
2023-03-06T18:32:44.356Z,8.07
2023-03-06T18:35:10.828Z,7.50
2023-03-06T18:37:37.445Z,7.93
2023-03-06T18:40:04.335Z,8.05
2023-03-06T18:42:30.906Z,7.80
2023-03-06T18:44:57.348Z,8.95
2023-03-06T18:47:23.822Z,7.13
2023-03-06T18:49:50.353Z,8.10
2023-03-06T18:52:16.885Z,8.27
2023-03-06T18:54:43.393Z,9.05
2023-03-06T18:57:09.890Z,8.95
2023-03-06T18:59:36.880Z,8.55
2023-03-06T19:02:03.841Z,9.30
2023-03-06T19:04:30.315Z,11.48
2023-03-06T19:06:56.817Z,9.15
2023-03-06T19:09:23.490Z,8.20
2023-03-06T19:11:49.962Z,8.93
2023-03-06T19:14:16.776Z,8.07
2023-03-06T19:16:43.394Z,7.80
2023-03-06T19:19:10.005Z,7.45
2023-03-06T19:21:36.520Z,8.00
2023-03-06T19:24:03.330Z,7.95
2023-03-06T19:26:29.939Z,8.55
2023-03-06T19:28:56.383Z,7.97
2023-03-06T19:31:26.219Z,7.68
2023-03-06T19:33:54.065Z,8.27
2023-03-06T19:36:21.561Z,7.05
2023-03-06T19:38:48.069Z,6.72
2023-03-06T19:41:14.535Z,6.75
2023-03-06T19:43:43.758Z,6.72
2023-03-06T19:46:13.874Z,6.63
2023-03-06T19:48:41.543Z,6.85
2023-03-06T19:51:09.093Z,7.10
2023-03-06T19:53:35.609Z,7.68
2023-03-06T19:56:09.470Z,6.88
2023-03-06T19:58:35.984Z,7.13
2023-03-06T20:01:13.820Z,7.10
2023-03-06T20:03:40.682Z,7.03
2023-03-06T20:06:12.532Z,6.65
2023-03-06T20:08:39.082Z,7.22
2023-03-06T20:11:06.687Z,6.55
2023-03-06T20:13:33.506Z,7.40
2023-03-06T20:16:06.934Z,6.32
2023-03-06T20:18:39.507Z,7.10
2023-03-06T20:21:06.448Z,6.03
2023-03-06T20:23:33.607Z,6.55
2023-03-06T20:26:05.770Z,6.50
2023-03-06T20:28:33.293Z,5.68
2023-03-06T20:31:06.474Z,6.47
2023-03-06T20:33:34.792Z,6.82
2023-03-06T20:36:01.543Z,6.35
2023-03-06T20:38:28.295Z,7.53
2023-03-06T20:40:55.108Z,6.55
2023-03-06T20:43:23.661Z,6.15
2023-03-06T20:46:03.886Z,7.32
2023-03-06T20:48:31.697Z,7.95
2023-03-06T20:51:07.649Z,6.47
2023-03-06T20:53:35.613Z,5.85
2023-03-06T20:56:02.455Z,7.15
2023-03-06T20:58:29.239Z,7.05
2023-03-06T21:00:57.490Z,6.65
2023-03-06T21:03:24.938Z,5.80
2023-03-06T21:05:51.971Z,7.22
2023-03-06T21:08:18.749Z,7.22
2023-03-06T21:10:45.525Z,6.75
2023-03-06T21:13:12.414Z,6.70
2023-03-06T21:15:40.157Z,6.82
2023-03-06T21:18:07.202Z,7.05
2023-03-06T21:20:39.164Z,6.57
2023-03-06T21:23:09.246Z,7.43
2023-03-06T21:25:36.611Z,6.05
2023-03-06T21:28:03.188Z,6.68
2023-03-06T21:30:30.021Z,6.22
2023-03-06T21:32:56.666Z,5.85
2023-03-06T21:35:23.391Z,6.25
2023-03-06T21:37:50.173Z,5.75
2023-03-06T21:40:17.124Z,7.05
2023-03-06T21:42:43.823Z,6.55
2023-03-06T21:45:10.815Z,7.20
2023-03-06T21:47:37.942Z,6.55
2023-03-06T21:50:06.507Z,6.63
2023-03-06T21:52:33.212Z,7.68
2023-03-06T21:55:01.530Z,7.05
2023-03-06T21:57:28.256Z,6.97
2023-03-06T21:59:55.038Z,8.77
2023-03-06T22:02:23.383Z,7.90
2023-03-06T22:04:51.480Z,5.85
2023-03-06T22:07:19.765Z,7.32
2023-03-06T22:09:51.065Z,7.63
2023-03-06T22:12:18.730Z,7.60
2023-03-06T22:14:45.404Z,8.20
2023-03-06T22:17:12.076Z,7.32
2023-03-06T22:19:39.030Z,6.57
2023-03-06T22:22:05.671Z,7.45
2023-03-06T22:24:33.937Z,6.88
2023-03-06T22:29:30.968Z,6.85
2023-03-06T22:31:57.596Z,9.20
2023-03-06T22:34:26.755Z,7.90
2023-03-06T22:36:53.305Z,7.35
2023-03-06T22:39:20.044Z,7.28
2023-03-06T22:41:46.660Z,6.75
2023-03-06T22:44:17.472Z,7.32
2023-03-06T22:46:44.398Z,6.10
2023-03-06T22:49:14.515Z,6.85
2023-03-06T22:51:43.035Z,7.57
2023-03-06T22:54:12.497Z,7.40
2023-03-06T22:56:41.804Z,7.60
2023-03-06T22:59:08.469Z,8.15
2023-03-06T23:01:35.290Z,7.20
2023-03-06T23:04:04.628Z,7.38
2023-03-06T23:06:36.926Z,8.10
2023-03-06T23:09:14.863Z,6.82
2023-03-06T23:11:59.922Z,6.85
2023-03-06T23:14:45.338Z,7.38
2023-03-06T23:17:30.798Z,6.10
2023-03-06T23:20:19.027Z,7.40
2023-03-06T23:23:06.650Z,6.72
2023-03-06T23:25:43.588Z,7.00
2023-03-06T23:28:12.330Z,6.95
2023-03-06T23:30:42.095Z,6.60
2023-03-06T23:33:09.051Z,5.43
2023-03-06T23:35:37.447Z,6.75
2023-03-06T23:38:04.089Z,6.53
2023-03-06T23:40:34.824Z,7.63
2023-03-06T23:43:01.509Z,7.53
2023-03-06T23:45:28.277Z,7.22
2023-03-06T23:47:56.394Z,6.97
2023-03-06T23:50:23.456Z,7.13
2023-03-06T23:52:53.971Z,7.70
2023-03-06T23:55:22.733Z,7.07
2023-03-06T23:57:49.363Z,5.80
